sensor_id;sensor_type;location;lat;lon;timestamp;P1;durP1;ratioP1;P2;durP2;ratioP2
27383;SDS011;14851;51.166;4.760;2023-04-08T00:00:28;17.50;;;6.05;;
27383;SDS011;14851;51.166;4.760;2023-04-08T00:02:56;24.27;;;6.20;;
27383;SDS011;14851;51.166;4.760;2023-04-08T00:05:22;19.15;;;5.68;;
27383;SDS011;14851;51.166;4.760;2023-04-08T00:07:48;20.38;;;5.95;;
27383;SDS011;14851;51.166;4.760;2023-04-08T00:10:16;20.60;;;6.30;;
27383;SDS011;14851;51.166;4.760;2023-04-08T00:12:42;22.15;;;6.88;;
27383;SDS011;14851;51.166;4.760;2023-04-08T00:15:08;16.83;;;6.30;;
27383;SDS011;14851;51.166;4.760;2023-04-08T00:17:37;19.27;;;6.95;;
27383;SDS011;14851;51.166;4.760;2023-04-08T00:20:07;16.92;;;6.90;;
27383;SDS011;14851;51.166;4.760;2023-04-08T00:22:34;17.50;;;6.53;;
27383;SDS011;14851;51.166;4.760;2023-04-08T00:25:00;15.25;;;6.60;;
27383;SDS011;14851;51.166;4.760;2023-04-08T00:27:31;21.05;;;5.85;;
27383;SDS011;14851;51.166;4.760;2023-04-08T00:29:57;16.70;;;7.07;;
27383;SDS011;14851;51.166;4.760;2023-04-08T00:32:26;20.17;;;7.38;;
27383;SDS011;14851;51.166;4.760;2023-04-08T00:34:53;24.05;;;7.57;;
27383;SDS011;14851;51.166;4.760;2023-04-08T00:37:19;20.58;;;6.13;;
27383;SDS011;14851;51.166;4.760;2023-04-08T00:39:47;20.58;;;6.60;;
27383;SDS011;14851;51.166;4.760;2023-04-08T00:42:14;20.48;;;6.20;;
27383;SDS011;14851;51.166;4.760;2023-04-08T00:44:40;18.48;;;5.80;;
27383;SDS011;14851;51.166;4.760;2023-04-08T00:47:07;14.70;;;6.63;;
27383;SDS011;14851;51.166;4.760;2023-04-08T00:52:03;18.27;;;6.43;;
27383;SDS011;14851;51.166;4.760;2023-04-08T00:54:31;22.65;;;6.40;;
27383;SDS011;14851;51.166;4.760;2023-04-08T00:57:00;24.02;;;6.63;;
27383;SDS011;14851;51.166;4.760;2023-04-08T00:59:28;22.27;;;6.25;;
27383;SDS011;14851;51.166;4.760;2023-04-08T01:02:17;18.02;;;6.85;;
27383;SDS011;14851;51.166;4.760;2023-04-08T01:07:50;24.88;;;5.82;;
27383;SDS011;14851;51.166;4.760;2023-04-08T01:10:27;23.42;;;7.15;;
27383;SDS011;14851;51.166;4.760;2023-04-08T01:12:58;15.45;;;6.30;;
27383;SDS011;14851;51.166;4.760;2023-04-08T01:15:29;17.70;;;6.80;;
27383;SDS011;14851;51.166;4.760;2023-04-08T01:17:59;18.55;;;6.63;;
27383;SDS011;14851;51.166;4.760;2023-04-08T01:20:31;20.15;;;7.40;;
27383;SDS011;14851;51.166;4.760;2023-04-08T01:23:45;18.52;;;6.57;;
27383;SDS011;14851;51.166;4.760;2023-04-08T01:26:03;18.23;;;5.88;;
27383;SDS011;14851;51.166;4.760;2023-04-08T01:28:30;15.75;;;5.70;;
27383;SDS011;14851;51.166;4.760;2023-04-08T01:30:58;19.42;;;6.43;;
27383;SDS011;14851;51.166;4.760;2023-04-08T01:33:26;19.33;;;6.65;;
27383;SDS011;14851;51.166;4.760;2023-04-08T01:35:54;22.02;;;6.75;;
27383;SDS011;14851;51.166;4.760;2023-04-08T01:38:22;21.15;;;6.47;;
27383;SDS011;14851;51.166;4.760;2023-04-08T01:40:50;22.17;;;7.50;;
27383;SDS011;14851;51.166;4.760;2023-04-08T01:43:19;20.58;;;6.88;;
27383;SDS011;14851;51.166;4.760;2023-04-08T01:45:46;23.50;;;7.55;;
27383;SDS011;14851;51.166;4.760;2023-04-08T01:48:19;22.15;;;7.55;;
27383;SDS011;14851;51.166;4.760;2023-04-08T01:50:46;15.02;;;6.47;;
27383;SDS011;14851;51.166;4.760;2023-04-08T01:53:13;19.42;;;6.60;;
27383;SDS011;14851;51.166;4.760;2023-04-08T01:55:39;24.80;;;7.40;;
27383;SDS011;14851;51.166;4.760;2023-04-08T01:58:06;18.42;;;6.25;;
27383;SDS011;14851;51.166;4.760;2023-04-08T02:00:38;19.08;;;6.03;;
27383;SDS011;14851;51.166;4.760;2023-04-08T02:03:08;17.67;;;6.00;;
27383;SDS011;14851;51.166;4.760;2023-04-08T02:05:44;22.15;;;7.00;;
27383;SDS011;14851;51.166;4.760;2023-04-08T02:08:10;17.15;;;6.85;;
27383;SDS011;14851;51.166;4.760;2023-04-08T02:10:36;19.15;;;5.95;;
27383;SDS011;14851;51.166;4.760;2023-04-08T02:13:04;20.13;;;5.82;;
27383;SDS011;14851;51.166;4.760;2023-04-08T02:15:33;16.65;;;6.03;;
27383;SDS011;14851;51.166;4.760;2023-04-08T02:18:14;16.52;;;5.90;;
27383;SDS011;14851;51.166;4.760;2023-04-08T02:20:46;20.05;;;6.15;;
27383;SDS011;14851;51.166;4.760;2023-04-08T02:23:26;21.17;;;7.22;;
27383;SDS011;14851;51.166;4.760;2023-04-08T02:25:57;19.40;;;5.50;;
27383;SDS011;14851;51.166;4.760;2023-04-08T02:28:25;16.00;;;6.47;;
27383;SDS011;14851;51.166;4.760;2023-04-08T02:30:56;21.08;;;7.05;;
27383;SDS011;14851;51.166;4.760;2023-04-08T02:33:24;16.48;;;6.57;;
27383;SDS011;14851;51.166;4.760;2023-04-08T02:35:51;27.75;;;7.38;;
27383;SDS011;14851;51.166;4.760;2023-04-08T02:38:19;16.52;;;7.40;;
27383;SDS011;14851;51.166;4.760;2023-04-08T02:40:48;17.20;;;6.22;;
27383;SDS011;14851;51.166;4.760;2023-04-08T02:43:18;21.02;;;7.65;;
27383;SDS011;14851;51.166;4.760;2023-04-08T02:45:44;22.60;;;7.68;;
27383;SDS011;14851;51.166;4.760;2023-04-08T02:48:10;24.88;;;7.53;;
27383;SDS011;14851;51.166;4.760;2023-04-08T02:50:36;27.83;;;8.65;;
27383;SDS011;14851;51.166;4.760;2023-04-08T02:53:02;19.05;;;7.97;;
27383;SDS011;14851;51.166;4.760;2023-04-08T02:55:32;24.55;;;8.52;;
27383;SDS011;14851;51.166;4.760;2023-04-08T02:57:58;19.95;;;7.93;;
27383;SDS011;14851;51.166;4.760;2023-04-08T03:00:24;18.38;;;7.47;;
27383;SDS011;14851;51.166;4.760;2023-04-08T03:02:50;20.05;;;7.50;;
27383;SDS011;14851;51.166;4.760;2023-04-08T03:05:18;15.55;;;7.00;;
27383;SDS011;14851;51.166;4.760;2023-04-08T03:07:44;17.83;;;7.72;;
27383;SDS011;14851;51.166;4.760;2023-04-08T03:10:10;19.63;;;6.70;;
27383;SDS011;14851;51.166;4.760;2023-04-08T03:12:38;20.80;;;6.65;;
27383;SDS011;14851;51.166;4.760;2023-04-08T03:15:04;17.67;;;6.78;;
27383;SDS011;14851;51.166;4.760;2023-04-08T03:17:33;22.80;;;7.05;;
27383;SDS011;14851;51.166;4.760;2023-04-08T03:19:59;18.48;;;6.85;;
27383;SDS011;14851;51.166;4.760;2023-04-08T03:22:29;26.02;;;6.97;;
27383;SDS011;14851;51.166;4.760;2023-04-08T03:24:55;17.20;;;6.18;;
27383;SDS011;14851;51.166;4.760;2023-04-08T03:27:21;19.10;;;6.30;;
27383;SDS011;14851;51.166;4.760;2023-04-08T03:29:47;16.50;;;6.22;;
27383;SDS011;14851;51.166;4.760;2023-04-08T03:32:17;26.42;;;6.50;;
27383;SDS011;14851;51.166;4.760;2023-04-08T03:34:44;17.15;;;6.65;;
27383;SDS011;14851;51.166;4.760;2023-04-08T03:37:16;20.02;;;6.90;;
27383;SDS011;14851;51.166;4.760;2023-04-08T03:39:42;15.82;;;6.45;;
27383;SDS011;14851;51.166;4.760;2023-04-08T03:42:08;16.42;;;6.70;;
27383;SDS011;14851;51.166;4.760;2023-04-08T03:44:33;25.13;;;8.93;;
27383;SDS011;14851;51.166;4.760;2023-04-08T03:46:59;18.65;;;7.57;;
27383;SDS011;14851;51.166;4.760;2023-04-08T03:49:25;18.75;;;8.07;;
27383;SDS011;14851;51.166;4.760;2023-04-08T03:51:53;19.38;;;8.48;;
27383;SDS011;14851;51.166;4.760;2023-04-08T03:54:19;26.50;;;9.85;;
27383;SDS011;14851;51.166;4.760;2023-04-08T03:56:48;28.27;;;11.43;;
27383;SDS011;14851;51.166;4.760;2023-04-08T03:59:15;24.10;;;12.15;;
27383;SDS011;14851;51.166;4.760;2023-04-08T04:01:41;18.05;;;8.23;;
27383;SDS011;14851;51.166;4.760;2023-04-08T04:04:09;19.27;;;7.88;;
27383;SDS011;14851;51.166;4.760;2023-04-08T04:06:35;21.35;;;8.65;;
27383;SDS011;14851;51.166;4.760;2023-04-08T04:09:01;21.10;;;9.55;;
27383;SDS011;14851;51.166;4.760;2023-04-08T04:11:27;17.27;;;8.15;;
27383;SDS011;14851;51.166;4.760;2023-04-08T04:13:56;27.60;;;10.20;;
27383;SDS011;14851;51.166;4.760;2023-04-08T04:16:24;26.05;;;9.27;;
27383;SDS011;14851;51.166;4.760;2023-04-08T04:18:51;18.25;;;7.97;;
27383;SDS011;14851;51.166;4.760;2023-04-08T04:21:17;21.02;;;10.25;;
27383;SDS011;14851;51.166;4.760;2023-04-08T04:23:46;23.65;;;10.15;;
27383;SDS011;14851;51.166;4.760;2023-04-08T04:26:15;32.55;;;11.10;;
27383;SDS011;14851;51.166;4.760;2023-04-08T04:28:40;24.25;;;11.68;;
27383;SDS011;14851;51.166;4.760;2023-04-08T04:31:06;25.05;;;11.13;;
27383;SDS011;14851;51.166;4.760;2023-04-08T04:33:34;28.25;;;11.57;;
27383;SDS011;14851;51.166;4.760;2023-04-08T04:36:00;32.00;;;12.38;;
27383;SDS011;14851;51.166;4.760;2023-04-08T04:38:26;24.83;;;11.55;;
27383;SDS011;14851;51.166;4.760;2023-04-08T04:40:52;21.20;;;11.43;;
27383;SDS011;14851;51.166;4.760;2023-04-08T04:43:18;32.95;;;12.55;;
27383;SDS011;14851;51.166;4.760;2023-04-08T04:45:44;25.17;;;11.48;;
27383;SDS011;14851;51.166;4.760;2023-04-08T04:48:09;34.30;;;14.07;;
27383;SDS011;14851;51.166;4.760;2023-04-08T04:50:35;35.60;;;14.18;;
27383;SDS011;14851;51.166;4.760;2023-04-08T04:53:01;26.15;;;14.85;;
27383;SDS011;14851;51.166;4.760;2023-04-08T04:55:27;28.38;;;14.02;;
27383;SDS011;14851;51.166;4.760;2023-04-08T04:57:55;34.85;;;14.95;;
27383;SDS011;14851;51.166;4.760;2023-04-08T05:00:21;25.98;;;13.30;;
27383;SDS011;14851;51.166;4.760;2023-04-08T05:02:47;23.73;;;10.90;;
27383;SDS011;14851;51.166;4.760;2023-04-08T05:05:15;25.67;;;10.15;;
27383;SDS011;14851;51.166;4.760;2023-04-08T05:07:43;33.25;;;13.35;;
27383;SDS011;14851;51.166;4.760;2023-04-08T05:10:12;21.67;;;11.13;;
27383;SDS011;14851;51.166;4.760;2023-04-08T05:12:39;30.13;;;15.48;;
27383;SDS011;14851;51.166;4.760;2023-04-08T05:15:05;29.17;;;13.45;;
27383;SDS011;14851;51.166;4.760;2023-04-08T05:17:32;28.23;;;14.82;;
27383;SDS011;14851;51.166;4.760;2023-04-08T05:19:57;27.73;;;14.00;;
27383;SDS011;14851;51.166;4.760;2023-04-08T05:22:23;30.05;;;14.77;;
27383;SDS011;14851;51.166;4.760;2023-04-08T05:24:49;32.55;;;15.40;;
27383;SDS011;14851;51.166;4.760;2023-04-08T05:27:15;35.78;;;17.23;;
27383;SDS011;14851;51.166;4.760;2023-04-08T05:29:41;34.10;;;16.15;;
27383;SDS011;14851;51.166;4.760;2023-04-08T05:32:07;36.72;;;17.88;;
27383;SDS011;14851;51.166;4.760;2023-04-08T05:34:34;37.03;;;20.20;;
27383;SDS011;14851;51.166;4.760;2023-04-08T05:37:00;33.65;;;18.48;;
27383;SDS011;14851;51.166;4.760;2023-04-08T05:39:28;29.90;;;18.70;;
27383;SDS011;14851;51.166;4.760;2023-04-08T05:41:54;33.15;;;17.40;;
27383;SDS011;14851;51.166;4.760;2023-04-08T05:44:20;33.50;;;17.92;;
27383;SDS011;14851;51.166;4.760;2023-04-08T05:46:46;31.25;;;18.95;;
27383;SDS011;14851;51.166;4.760;2023-04-08T05:49:11;30.15;;;18.05;;
27383;SDS011;14851;51.166;4.760;2023-04-08T05:51:37;35.00;;;18.90;;
27383;SDS011;14851;51.166;4.760;2023-04-08T05:54:06;30.40;;;18.58;;
27383;SDS011;14851;51.166;4.760;2023-04-08T05:56:32;37.72;;;20.50;;
27383;SDS011;14851;51.166;4.760;2023-04-08T05:58:59;41.42;;;20.63;;
27383;SDS011;14851;51.166;4.760;2023-04-08T06:01:25;38.05;;;20.52;;
27383;SDS011;14851;51.166;4.760;2023-04-08T06:03:51;34.97;;;21.25;;
27383;SDS011;14851;51.166;4.760;2023-04-08T06:06:17;43.03;;;23.15;;
27383;SDS011;14851;51.166;4.760;2023-04-08T06:08:42;43.03;;;23.20;;
27383;SDS011;14851;51.166;4.760;2023-04-08T06:11:08;41.67;;;21.85;;
27383;SDS011;14851;51.166;4.760;2023-04-08T06:13:34;39.80;;;21.05;;
27383;SDS011;14851;51.166;4.760;2023-04-08T06:16:11;41.28;;;21.25;;
27383;SDS011;14851;51.166;4.760;2023-04-08T06:18:38;41.25;;;21.98;;
27383;SDS011;14851;51.166;4.760;2023-04-08T06:21:04;42.55;;;20.88;;
27383;SDS011;14851;51.166;4.760;2023-04-08T06:23:32;49.40;;;21.58;;
27383;SDS011;14851;51.166;4.760;2023-04-08T06:25:57;38.22;;;21.67;;
27383;SDS011;14851;51.166;4.760;2023-04-08T06:28:23;43.63;;;21.00;;
27383;SDS011;14851;51.166;4.760;2023-04-08T06:30:49;36.00;;;21.33;;
27383;SDS011;14851;51.166;4.760;2023-04-08T06:33:15;40.85;;;21.00;;
27383;SDS011;14851;51.166;4.760;2023-04-08T06:35:41;40.28;;;20.90;;
27383;SDS011;14851;51.166;4.760;2023-04-08T06:38:07;40.35;;;20.83;;
27383;SDS011;14851;51.166;4.760;2023-04-08T06:40:33;44.20;;;22.88;;
27383;SDS011;14851;51.166;4.760;2023-04-08T06:42:59;39.28;;;21.02;;
27383;SDS011;14851;51.166;4.760;2023-04-08T06:45:34;44.70;;;21.75;;
27383;SDS011;14851;51.166;4.760;2023-04-08T06:48:00;42.88;;;21.67;;
27383;SDS011;14851;51.166;4.760;2023-04-08T06:50:26;38.33;;;20.83;;
27383;SDS011;14851;51.166;4.760;2023-04-08T06:52:52;41.45;;;20.92;;
27383;SDS011;14851;51.166;4.760;2023-04-08T06:55:20;36.67;;;20.13;;
27383;SDS011;14851;51.166;4.760;2023-04-08T06:57:46;40.88;;;22.30;;
27383;SDS011;14851;51.166;4.760;2023-04-08T07:00:12;41.65;;;21.90;;
27383;SDS011;14851;51.166;4.760;2023-04-08T07:02:38;43.88;;;21.75;;
27383;SDS011;14851;51.166;4.760;2023-04-08T07:05:04;37.22;;;22.27;;
27383;SDS011;14851;51.166;4.760;2023-04-08T07:07:33;41.50;;;22.55;;
27383;SDS011;14851;51.166;4.760;2023-04-08T07:09:59;42.80;;;23.92;;
27383;SDS011;14851;51.166;4.760;2023-04-08T07:12:25;35.72;;;22.40;;
27383;SDS011;14851;51.166;4.760;2023-04-08T07:14:51;44.22;;;25.77;;
27383;SDS011;14851;51.166;4.760;2023-04-08T07:17:19;42.60;;;25.40;;
27383;SDS011;14851;51.166;4.760;2023-04-08T07:19:45;42.50;;;26.45;;
27383;SDS011;14851;51.166;4.760;2023-04-08T07:22:11;40.53;;;27.38;;
27383;SDS011;14851;51.166;4.760;2023-04-08T07:24:37;42.78;;;27.30;;
27383;SDS011;14851;51.166;4.760;2023-04-08T07:27:03;47.28;;;28.42;;
27383;SDS011;14851;51.166;4.760;2023-04-08T07:29:29;43.58;;;28.08;;
27383;SDS011;14851;51.166;4.760;2023-04-08T07:31:55;49.47;;;28.98;;
27383;SDS011;14851;51.166;4.760;2023-04-08T07:34:21;47.53;;;30.08;;
27383;SDS011;14851;51.166;4.760;2023-04-08T07:36:47;41.75;;;30.02;;
27383;SDS011;14851;51.166;4.760;2023-04-08T07:39:13;48.08;;;30.15;;
27383;SDS011;14851;51.166;4.760;2023-04-08T07:41:39;53.25;;;31.00;;
27383;SDS011;14851;51.166;4.760;2023-04-08T07:44:05;51.33;;;30.92;;
27383;SDS011;14851;51.166;4.760;2023-04-08T07:46:36;53.47;;;31.02;;
27383;SDS011;14851;51.166;4.760;2023-04-08T07:49:03;44.50;;;31.67;;
27383;SDS011;14851;51.166;4.760;2023-04-08T07:51:29;43.00;;;31.48;;
27383;SDS011;14851;51.166;4.760;2023-04-08T07:53:57;41.92;;;28.92;;
27383;SDS011;14851;51.166;4.760;2023-04-08T07:56:23;42.45;;;30.45;;
27383;SDS011;14851;51.166;4.760;2023-04-08T07:58:50;43.22;;;31.33;;
27383;SDS011;14851;51.166;4.760;2023-04-08T08:01:21;48.90;;;31.65;;
27383;SDS011;14851;51.166;4.760;2023-04-08T08:03:50;50.35;;;29.85;;
27383;SDS011;14851;51.166;4.760;2023-04-08T08:06:16;43.33;;;31.10;;
27383;SDS011;14851;51.166;4.760;2023-04-08T08:08:42;46.67;;;30.85;;
27383;SDS011;14851;51.166;4.760;2023-04-08T08:11:08;39.83;;;29.92;;
27383;SDS011;14851;51.166;4.760;2023-04-08T08:13:37;45.60;;;29.33;;
27383;SDS011;14851;51.166;4.760;2023-04-08T08:16:03;44.22;;;29.58;;
27383;SDS011;14851;51.166;4.760;2023-04-08T08:18:32;43.28;;;30.65;;
27383;SDS011;14851;51.166;4.760;2023-04-08T08:21:00;41.30;;;30.80;;
27383;SDS011;14851;51.166;4.760;2023-04-08T08:23:26;41.33;;;30.83;;
27383;SDS011;14851;51.166;4.760;2023-04-08T08:26:02;37.60;;;27.58;;
27383;SDS011;14851;51.166;4.760;2023-04-08T08:28:30;40.28;;;30.25;;
27383;SDS011;14851;51.166;4.760;2023-04-08T08:31:00;40.72;;;32.03;;
27383;SDS011;14851;51.166;4.760;2023-04-08T08:33:27;48.90;;;33.50;;
27383;SDS011;14851;51.166;4.760;2023-04-08T08:35:53;41.55;;;31.95;;
27383;SDS011;14851;51.166;4.760;2023-04-08T08:38:20;45.38;;;32.78;;
27383;SDS011;14851;51.166;4.760;2023-04-08T08:40:46;45.60;;;33.42;;
27383;SDS011;14851;51.166;4.760;2023-04-08T08:43:17;47.42;;;32.25;;
27383;SDS011;14851;51.166;4.760;2023-04-08T08:45:44;43.22;;;30.52;;
27383;SDS011;14851;51.166;4.760;2023-04-08T08:48:10;47.33;;;31.48;;
27383;SDS011;14851;51.166;4.760;2023-04-08T08:50:36;42.92;;;31.15;;
27383;SDS011;14851;51.166;4.760;2023-04-08T08:53:04;42.60;;;30.45;;
27383;SDS011;14851;51.166;4.760;2023-04-08T08:55:30;40.97;;;29.98;;
27383;SDS011;14851;51.166;4.760;2023-04-08T08:58:00;41.08;;;29.40;;
27383;SDS011;14851;51.166;4.760;2023-04-08T09:00:34;40.88;;;28.85;;
27383;SDS011;14851;51.166;4.760;2023-04-08T09:03:19;41.95;;;30.70;;
27383;SDS011;14851;51.166;4.760;2023-04-08T09:05:52;38.33;;;29.58;;
27383;SDS011;14851;51.166;4.760;2023-04-08T09:08:27;50.00;;;34.80;;
27383;SDS011;14851;51.166;4.760;2023-04-08T09:11:14;37.78;;;27.70;;
27383;SDS011;14851;51.166;4.760;2023-04-08T09:13:46;37.92;;;29.10;;
27383;SDS011;14851;51.166;4.760;2023-04-08T09:16:13;39.25;;;28.98;;
27383;SDS011;14851;51.166;4.760;2023-04-08T09:18:42;42.17;;;31.70;;
27383;SDS011;14851;51.166;4.760;2023-04-08T09:21:13;44.72;;;31.85;;
27383;SDS011;14851;51.166;4.760;2023-04-08T09:23:45;50.85;;;33.58;;
27383;SDS011;14851;51.166;4.760;2023-04-08T09:26:21;43.17;;;31.65;;
27383;SDS011;14851;51.166;4.760;2023-04-08T09:29:04;45.45;;;32.65;;
27383;SDS011;14851;51.166;4.760;2023-04-08T09:31:36;45.47;;;33.75;;
27383;SDS011;14851;51.166;4.760;2023-04-08T09:34:15;35.67;;;28.17;;
27383;SDS011;14851;51.166;4.760;2023-04-08T09:36:43;41.13;;;30.13;;
27383;SDS011;14851;51.166;4.760;2023-04-08T09:39:16;42.97;;;30.02;;
27383;SDS011;14851;51.166;4.760;2023-04-08T09:41:43;41.10;;;29.47;;
27383;SDS011;14851;51.166;4.760;2023-04-08T09:44:12;40.67;;;28.80;;
27383;SDS011;14851;51.166;4.760;2023-04-08T09:52:59;33.72;;;26.52;;
27383;SDS011;14851;51.166;4.760;2023-04-08T09:55:11;33.05;;;26.08;;
27383;SDS011;14851;51.166;4.760;2023-04-08T09:57:45;33.67;;;26.10;;
27383;SDS011;14851;51.166;4.760;2023-04-08T10:00:24;34.03;;;26.63;;
27383;SDS011;14851;51.166;4.760;2023-04-08T10:05:32;32.75;;;25.40;;
27383;SDS011;14851;51.166;4.760;2023-04-08T10:08:04;33.70;;;26.05;;
27383;SDS011;14851;51.166;4.760;2023-04-08T10:10:34;33.95;;;27.20;;
27383;SDS011;14851;51.166;4.760;2023-04-08T10:13:05;31.70;;;24.50;;
27383;SDS011;14851;51.166;4.760;2023-04-08T10:15:32;32.38;;;25.83;;
27383;SDS011;14851;51.166;4.760;2023-04-08T10:23:00;33.70;;;26.00;;
27383;SDS011;14851;51.166;4.760;2023-04-08T10:25:36;32.60;;;27.13;;
27383;SDS011;14851;51.166;4.760;2023-04-08T10:30:53;31.80;;;25.38;;
27383;SDS011;14851;51.166;4.760;2023-04-08T10:38:40;23.83;;;20.25;;
27383;SDS011;14851;51.166;4.760;2023-04-08T10:41:07;26.17;;;20.52;;
27383;SDS011;14851;51.166;4.760;2023-04-08T10:43:45;22.47;;;18.20;;
27383;SDS011;14851;51.166;4.760;2023-04-08T10:46:11;27.73;;;22.15;;
27383;SDS011;14851;51.166;4.760;2023-04-08T10:48:37;27.70;;;22.15;;
27383;SDS011;14851;51.166;4.760;2023-04-08T10:51:04;29.00;;;22.77;;
27383;SDS011;14851;51.166;4.760;2023-04-08T10:53:32;28.25;;;22.15;;
27383;SDS011;14851;51.166;4.760;2023-04-08T10:56:03;26.25;;;21.15;;
27383;SDS011;14851;51.166;4.760;2023-04-08T10:58:48;28.88;;;21.52;;
27383;SDS011;14851;51.166;4.760;2023-04-08T11:01:20;25.65;;;19.85;;
27383;SDS011;14851;51.166;4.760;2023-04-08T11:03:47;28.13;;;20.05;;
27383;SDS011;14851;51.166;4.760;2023-04-08T11:06:14;25.92;;;19.85;;
27383;SDS011;14851;51.166;4.760;2023-04-08T11:08:40;27.20;;;20.98;;
27383;SDS011;14851;51.166;4.760;2023-04-08T11:11:06;25.15;;;20.42;;
27383;SDS011;14851;51.166;4.760;2023-04-08T11:13:36;23.58;;;19.13;;
27383;SDS011;14851;51.166;4.760;2023-04-08T11:16:07;27.13;;;21.00;;
27383;SDS011;14851;51.166;4.760;2023-04-08T11:18:36;27.73;;;21.80;;
27383;SDS011;14851;51.166;4.760;2023-04-08T11:21:11;25.30;;;20.73;;
27383;SDS011;14851;51.166;4.760;2023-04-08T11:23:36;28.05;;;21.45;;
27383;SDS011;14851;51.166;4.760;2023-04-08T11:26:05;26.58;;;21.45;;
27383;SDS011;14851;51.166;4.760;2023-04-08T11:28:33;25.48;;;21.02;;
27383;SDS011;14851;51.166;4.760;2023-04-08T11:31:00;26.95;;;21.00;;
27383;SDS011;14851;51.166;4.760;2023-04-08T11:33:30;26.03;;;20.27;;
27383;SDS011;14851;51.166;4.760;2023-04-08T11:35:56;23.20;;;18.73;;
27383;SDS011;14851;51.166;4.760;2023-04-08T11:38:24;22.13;;;19.13;;
27383;SDS011;14851;51.166;4.760;2023-04-08T11:40:53;21.33;;;18.42;;
27383;SDS011;14851;51.166;4.760;2023-04-08T11:43:20;22.58;;;18.67;;
27383;SDS011;14851;51.166;4.760;2023-04-08T11:45:47;25.85;;;19.38;;
27383;SDS011;14851;51.166;4.760;2023-04-08T11:48:14;22.40;;;19.05;;
27383;SDS011;14851;51.166;4.760;2023-04-08T11:50:41;23.60;;;18.48;;
27383;SDS011;14851;51.166;4.760;2023-04-08T11:53:21;22.50;;;17.98;;
27383;SDS011;14851;51.166;4.760;2023-04-08T11:55:50;19.80;;;16.15;;
27383;SDS011;14851;51.166;4.760;2023-04-08T11:58:16;27.17;;;18.00;;
27383;SDS011;14851;51.166;4.760;2023-04-08T12:00:43;21.65;;;16.98;;
27383;SDS011;14851;51.166;4.760;2023-04-08T12:03:10;21.77;;;17.95;;
27383;SDS011;14851;51.166;4.760;2023-04-08T12:05:36;21.55;;;16.65;;
27383;SDS011;14851;51.166;4.760;2023-04-08T12:08:02;20.98;;;16.15;;
27383;SDS011;14851;51.166;4.760;2023-04-08T12:10:28;19.48;;;17.00;;
27383;SDS011;14851;51.166;4.760;2023-04-08T12:12:55;19.38;;;15.27;;
27383;SDS011;14851;51.166;4.760;2023-04-08T12:15:21;21.50;;;16.80;;
27383;SDS011;14851;51.166;4.760;2023-04-08T12:17:47;22.30;;;17.90;;
27383;SDS011;14851;51.166;4.760;2023-04-08T12:20:13;23.27;;;18.90;;
27383;SDS011;14851;51.166;4.760;2023-04-08T12:22:41;23.80;;;19.17;;
27383;SDS011;14851;51.166;4.760;2023-04-08T12:25:10;21.73;;;18.53;;
27383;SDS011;14851;51.166;4.760;2023-04-08T12:27:36;21.25;;;16.48;;
27383;SDS011;14851;51.166;4.760;2023-04-08T12:30:02;20.50;;;16.50;;
27383;SDS011;14851;51.166;4.760;2023-04-08T12:32:28;20.67;;;16.20;;
27383;SDS011;14851;51.166;4.760;2023-04-08T12:34:57;19.10;;;16.15;;
27383;SDS011;14851;51.166;4.760;2023-04-08T12:37:27;18.23;;;15.27;;
27383;SDS011;14851;51.166;4.760;2023-04-08T12:39:54;22.27;;;18.35;;
27383;SDS011;14851;51.166;4.760;2023-04-08T12:42:22;22.05;;;17.92;;
27383;SDS011;14851;51.166;4.760;2023-04-08T12:44:48;21.70;;;17.42;;
27383;SDS011;14851;51.166;4.760;2023-04-08T12:47:14;20.77;;;17.00;;
27383;SDS011;14851;51.166;4.760;2023-04-08T12:49:39;23.83;;;17.75;;
27383;SDS011;14851;51.166;4.760;2023-04-08T12:52:05;21.58;;;17.23;;
27383;SDS011;14851;51.166;4.760;2023-04-08T12:54:34;21.55;;;17.73;;
27383;SDS011;14851;51.166;4.760;2023-04-08T12:56:59;17.15;;;13.95;;
27383;SDS011;14851;51.166;4.760;2023-04-08T12:59:25;18.88;;;15.45;;
27383;SDS011;14851;51.166;4.760;2023-04-08T13:01:51;19.05;;;14.43;;
27383;SDS011;14851;51.166;4.760;2023-04-08T13:04:20;17.65;;;13.95;;
27383;SDS011;14851;51.166;4.760;2023-04-08T13:06:46;15.05;;;12.52;;
27383;SDS011;14851;51.166;4.760;2023-04-08T13:09:12;15.13;;;13.30;;
27383;SDS011;14851;51.166;4.760;2023-04-08T13:11:39;16.38;;;12.93;;
27383;SDS011;14851;51.166;4.760;2023-04-08T13:14:05;18.05;;;13.88;;
27383;SDS011;14851;51.166;4.760;2023-04-08T13:16:30;11.43;;;9.93;;
27383;SDS011;14851;51.166;4.760;2023-04-08T13:18:56;15.73;;;12.38;;
27383;SDS011;14851;51.166;4.760;2023-04-08T13:21:22;12.48;;;11.18;;
27383;SDS011;14851;51.166;4.760;2023-04-08T13:23:50;13.88;;;11.43;;
27383;SDS011;14851;51.166;4.760;2023-04-08T13:26:16;12.32;;;11.02;;
27383;SDS011;14851;51.166;4.760;2023-04-08T13:28:42;14.35;;;11.07;;
27383;SDS011;14851;51.166;4.760;2023-04-08T13:31:08;10.50;;;8.98;;
27383;SDS011;14851;51.166;4.760;2023-04-08T13:33:34;14.63;;;10.20;;
27383;SDS011;14851;51.166;4.760;2023-04-08T13:35:59;12.13;;;8.90;;
27383;SDS011;14851;51.166;4.760;2023-04-08T13:38:27;9.57;;;8.35;;
27383;SDS011;14851;51.166;4.760;2023-04-08T13:40:53;11.00;;;8.70;;
27383;SDS011;14851;51.166;4.760;2023-04-08T13:43:22;13.30;;;9.15;;
27383;SDS011;14851;51.166;4.760;2023-04-08T13:45:47;10.57;;;8.88;;
27383;SDS011;14851;51.166;4.760;2023-04-08T13:48:16;11.75;;;9.23;;
27383;SDS011;14851;51.166;4.760;2023-04-08T13:50:44;11.60;;;9.88;;
27383;SDS011;14851;51.166;4.760;2023-04-08T13:53:10;10.02;;;9.02;;
27383;SDS011;14851;51.166;4.760;2023-04-08T13:55:38;12.55;;;10.88;;
27383;SDS011;14851;51.166;4.760;2023-04-08T13:58:07;13.65;;;10.73;;
27383;SDS011;14851;51.166;4.760;2023-04-08T14:00:33;10.88;;;9.77;;
27383;SDS011;14851;51.166;4.760;2023-04-08T14:03:02;11.60;;;9.80;;
27383;SDS011;14851;51.166;4.760;2023-04-08T14:05:28;11.80;;;10.38;;
27383;SDS011;14851;51.166;4.760;2023-04-08T14:07:56;11.80;;;10.52;;
27383;SDS011;14851;51.166;4.760;2023-04-08T14:10:22;12.93;;;10.63;;
27383;SDS011;14851;51.166;4.760;2023-04-08T14:12:51;11.10;;;9.80;;
27383;SDS011;14851;51.166;4.760;2023-04-08T14:15:18;11.77;;;10.35;;
27383;SDS011;14851;51.166;4.760;2023-04-08T14:17:45;12.68;;;8.50;;
27383;SDS011;14851;51.166;4.760;2023-04-08T14:20:11;10.57;;;8.93;;
27383;SDS011;14851;51.166;4.760;2023-04-08T14:22:37;12.70;;;10.30;;
27383;SDS011;14851;51.166;4.760;2023-04-08T14:25:03;12.82;;;9.68;;
27383;SDS011;14851;51.166;4.760;2023-04-08T14:27:29;14.35;;;10.02;;
27383;SDS011;14851;51.166;4.760;2023-04-08T14:29:55;11.07;;;9.77;;
27383;SDS011;14851;51.166;4.760;2023-04-08T14:32:21;13.63;;;10.63;;
27383;SDS011;14851;51.166;4.760;2023-04-08T14:34:47;11.15;;;9.95;;
27383;SDS011;14851;51.166;4.760;2023-04-08T14:37:13;11.35;;;10.15;;
27383;SDS011;14851;51.166;4.760;2023-04-08T14:39:39;11.15;;;10.05;;
27383;SDS011;14851;51.166;4.760;2023-04-08T14:42:05;15.20;;;11.00;;
27383;SDS011;14851;51.166;4.760;2023-04-08T14:44:31;12.95;;;9.98;;
27383;SDS011;14851;51.166;4.760;2023-04-08T14:46:59;10.90;;;9.50;;
27383;SDS011;14851;51.166;4.760;2023-04-08T14:49:25;10.82;;;9.68;;
27383;SDS011;14851;51.166;4.760;2023-04-08T14:51:53;12.80;;;10.77;;
27383;SDS011;14851;51.166;4.760;2023-04-08T14:54:18;12.98;;;10.52;;
27383;SDS011;14851;51.166;4.760;2023-04-08T14:56:45;12.60;;;10.32;;